sensor_id;sensor_type;location;lat;lon;timestamp;temperature;humidity
54832;DHT22;40730;53.068;6.572;2024-03-08T00:01:09;1.80;99.90
54832;DHT22;40730;53.068;6.572;2024-03-08T00:03:35;1.80;99.90
54832;DHT22;40730;53.068;6.572;2024-03-08T00:06:01;1.80;99.90
54832;DHT22;40730;53.068;6.572;2024-03-08T00:08:27;1.80;99.90
54832;DHT22;40730;53.068;6.572;2024-03-08T00:10:52;1.90;99.90
54832;DHT22;40730;53.068;6.572;2024-03-08T00:13:18;1.70;99.90
54832;DHT22;40730;53.068;6.572;2024-03-08T00:15:44;1.60;99.90
54832;DHT22;40730;53.068;6.572;2024-03-08T00:18:09;1.60;99.90
54832;DHT22;40730;53.068;6.572;2024-03-08T00:20:37;1.50;99.90
54832;DHT22;40730;53.068;6.572;2024-03-08T00:23:02;1.60;99.90
54832;DHT22;40730;53.068;6.572;2024-03-08T00:25:28;1.60;99.90
54832;DHT22;40730;53.068;6.572;2024-03-08T00:27:53;1.60;99.90
54832;DHT22;40730;53.068;6.572;2024-03-08T00:30:22;1.50;99.90
54832;DHT22;40730;53.068;6.572;2024-03-08T00:32:50;1.50;99.90
54832;DHT22;40730;53.068;6.572;2024-03-08T00:35:16;1.50;99.90
54832;DHT22;40730;53.068;6.572;2024-03-08T00:37:41;1.50;99.90
54832;DHT22;40730;53.068;6.572;2024-03-08T00:40:08;1.50;99.90
54832;DHT22;40730;53.068;6.572;2024-03-08T00:42:34;1.40;99.90
54832;DHT22;40730;53.068;6.572;2024-03-08T00:45:01;1.40;99.90
54832;DHT22;40730;53.068;6.572;2024-03-08T00:47:26;1.40;99.90
54832;DHT22;40730;53.068;6.572;2024-03-08T00:49:52;1.40;99.90
54832;DHT22;40730;53.068;6.572;2024-03-08T00:52:18;1.40;99.90
54832;DHT22;40730;53.068;6.572;2024-03-08T00:54:44;1.40;99.90
54832;DHT22;40730;53.068;6.572;2024-03-08T00:57:10;1.40;99.90
54832;DHT22;40730;53.068;6.572;2024-03-08T00:59:38;1.40;99.90
54832;DHT22;40730;53.068;6.572;2024-03-08T01:02:04;1.40;99.90
54832;DHT22;40730;53.068;6.572;2024-03-08T01:04:29;1.10;99.90
54832;DHT22;40730;53.068;6.572;2024-03-08T01:06:59;1.40;99.90
54832;DHT22;40730;53.068;6.572;2024-03-08T01:09:25;1.40;99.90
54832;DHT22;40730;53.068;6.572;2024-03-08T01:11:52;1.30;99.90
54832;DHT22;40730;53.068;6.572;2024-03-08T01:14:20;1.40;99.90
54832;DHT22;40730;53.068;6.572;2024-03-08T01:16:48;1.40;99.90
54832;DHT22;40730;53.068;6.572;2024-03-08T01:19:14;1.40;99.90
54832;DHT22;40730;53.068;6.572;2024-03-08T01:21:41;1.40;99.90
54832;DHT22;40730;53.068;6.572;2024-03-08T01:24:07;1.40;99.90
54832;DHT22;40730;53.068;6.572;2024-03-08T01:26:32;1.60;99.90
54832;DHT22;40730;53.068;6.572;2024-03-08T01:29:00;1.40;99.90
54832;DHT22;40730;53.068;6.572;2024-03-08T01:31:25;1.50;99.90
54832;DHT22;40730;53.068;6.572;2024-03-08T01:33:51;1.50;99.90
54832;DHT22;40730;53.068;6.572;2024-03-08T01:36:16;1.50;99.90
54832;DHT22;40730;53.068;6.572;2024-03-08T01:38:44;1.50;99.90
54832;DHT22;40730;53.068;6.572;2024-03-08T01:41:10;1.40;99.90
54832;DHT22;40730;53.068;6.572;2024-03-08T01:43:37;1.40;99.90
54832;DHT22;40730;53.068;6.572;2024-03-08T01:46:05;1.40;99.90
54832;DHT22;40730;53.068;6.572;2024-03-08T01:48:31;1.40;99.90
54832;DHT22;40730;53.068;6.572;2024-03-08T01:50:57;1.40;99.90
54832;DHT22;40730;53.068;6.572;2024-03-08T01:53:29;1.40;99.90
54832;DHT22;40730;53.068;6.572;2024-03-08T01:55:59;1.40;99.90
54832;DHT22;40730;53.068;6.572;2024-03-08T01:58:27;1.40;99.90
54832;DHT22;40730;53.068;6.572;2024-03-08T02:00:54;1.30;99.90
54832;DHT22;40730;53.068;6.572;2024-03-08T02:03:21;1.30;99.90
54832;DHT22;40730;53.068;6.572;2024-03-08T02:05:47;1.30;99.90
54832;DHT22;40730;53.068;6.572;2024-03-08T02:08:14;1.30;99.90
54832;DHT22;40730;53.068;6.572;2024-03-08T02:10:41;1.30;99.90
54832;DHT22;40730;53.068;6.572;2024-03-08T02:13:07;1.30;99.90
54832;DHT22;40730;53.068;6.572;2024-03-08T02:18:18;1.30;99.90
54832;DHT22;40730;53.068;6.572;2024-03-08T02:20:45;1.30;99.90
54832;DHT22;40730;53.068;6.572;2024-03-08T02:23:13;1.30;99.90
54832;DHT22;40730;53.068;6.572;2024-03-08T02:25:39;1.20;99.90
54832;DHT22;40730;53.068;6.572;2024-03-08T02:28:05;1.20;99.90
54832;DHT22;40730;53.068;6.572;2024-03-08T02:30:30;1.20;99.90
54832;DHT22;40730;53.068;6.572;2024-03-08T02:32:56;1.20;99.90
54832;DHT22;40730;53.068;6.572;2024-03-08T02:35:23;1.20;99.90
54832;DHT22;40730;53.068;6.572;2024-03-08T02:37:48;1.10;99.90
54832;DHT22;40730;53.068;6.572;2024-03-08T02:40:14;1.10;99.90
54832;DHT22;40730;53.068;6.572;2024-03-08T02:42:39;1.10;99.90
54832;DHT22;40730;53.068;6.572;2024-03-08T02:45:05;1.10;99.90
54832;DHT22;40730;53.068;6.572;2024-03-08T02:47:31;1.10;99.90
54832;DHT22;40730;53.068;6.572;2024-03-08T02:49:57;1.00;99.90
54832;DHT22;40730;53.068;6.572;2024-03-08T02:52:23;1.20;99.90
54832;DHT22;40730;53.068;6.572;2024-03-08T02:54:48;1.00;99.90
54832;DHT22;40730;53.068;6.572;2024-03-08T02:57:15;0.90;99.90
54832;DHT22;40730;53.068;6.572;2024-03-08T02:59:42;0.90;99.90
54832;DHT22;40730;53.068;6.572;2024-03-08T03:02:08;0.90;99.90
54832;DHT22;40730;53.068;6.572;2024-03-08T03:04:35;0.90;99.90
54832;DHT22;40730;53.068;6.572;2024-03-08T03:07:01;0.90;99.90
54832;DHT22;40730;53.068;6.572;2024-03-08T03:09:27;0.90;99.90
54832;DHT22;40730;53.068;6.572;2024-03-08T03:11:56;1.40;99.90
54832;DHT22;40730;53.068;6.572;2024-03-08T03:14:22;0.90;99.90
54832;DHT22;40730;53.068;6.572;2024-03-08T03:16:48;0.90;99.90
54832;DHT22;40730;53.068;6.572;2024-03-08T03:19:13;0.80;99.90
54832;DHT22;40730;53.068;6.572;2024-03-08T03:21:40;0.90;99.90
54832;DHT22;40730;53.068;6.572;2024-03-08T03:24:08;0.90;99.90
54832;DHT22;40730;53.068;6.572;2024-03-08T03:26:38;0.90;99.90
54832;DHT22;40730;53.068;6.572;2024-03-08T03:29:07;0.80;99.90
54832;DHT22;40730;53.068;6.572;2024-03-08T03:31:35;0.80;99.90
54832;DHT22;40730;53.068;6.572;2024-03-08T03:34:01;0.80;99.90
54832;DHT22;40730;53.068;6.572;2024-03-08T03:36:29;0.80;99.90
54832;DHT22;40730;53.068;6.572;2024-03-08T03:38:55;0.70;99.90
54832;DHT22;40730;53.068;6.572;2024-03-08T03:41:35;0.80;99.90
54832;DHT22;40730;53.068;6.572;2024-03-08T03:44:00;0.80;99.90
54832;DHT22;40730;53.068;6.572;2024-03-08T03:46:26;0.80;99.90
54832;DHT22;40730;53.068;6.572;2024-03-08T03:48:53;0.80;99.90
54832;DHT22;40730;53.068;6.572;2024-03-08T03:51:19;0.70;99.90
54832;DHT22;40730;53.068;6.572;2024-03-08T03:53:45;0.70;99.90
54832;DHT22;40730;53.068;6.572;2024-03-08T03:56:11;0.70;99.90
54832;DHT22;40730;53.068;6.572;2024-03-08T03:58:36;0.70;99.90
54832;DHT22;40730;53.068;6.572;2024-03-08T04:01:04;0.60;99.90
54832;DHT22;40730;53.068;6.572;2024-03-08T04:03:30;0.60;99.90
54832;DHT22;40730;53.068;6.572;2024-03-08T04:05:56;0.60;99.90
54832;DHT22;40730;53.068;6.572;2024-03-08T04:08:21;0.60;99.90
54832;DHT22;40730;53.068;6.572;2024-03-08T04:10:49;0.50;99.90
54832;DHT22;40730;53.068;6.572;2024-03-08T04:13:15;0.50;99.90
54832;DHT22;40730;53.068;6.572;2024-03-08T04:15:41;0.50;99.90
54832;DHT22;40730;53.068;6.572;2024-03-08T04:18:09;0.50;99.90
54832;DHT22;40730;53.068;6.572;2024-03-08T04:20:35;0.50;99.90
54832;DHT22;40730;53.068;6.572;2024-03-08T04:23:01;0.50;99.90
54832;DHT22;40730;53.068;6.572;2024-03-08T04:25:27;0.50;99.90
54832;DHT22;40730;53.068;6.572;2024-03-08T04:27:53;0.50;99.90
54832;DHT22;40730;53.068;6.572;2024-03-08T04:30:18;0.50;99.90
54832;DHT22;40730;53.068;6.572;2024-03-08T04:32:46;0.70;99.90
54832;DHT22;40730;53.068;6.572;2024-03-08T04:35:12;0.50;99.90
54832;DHT22;40730;53.068;6.572;2024-03-08T04:37:38;0.40;99.90
54832;DHT22;40730;53.068;6.572;2024-03-08T04:40:05;0.40;99.90
54832;DHT22;40730;53.068;6.572;2024-03-08T04:42:31;0.40;99.90
54832;DHT22;40730;53.068;6.572;2024-03-08T04:44:58;0.40;99.90
54832;DHT22;40730;53.068;6.572;2024-03-08T04:47:24;0.40;99.90
54832;DHT22;40730;53.068;6.572;2024-03-08T04:49:50;0.40;99.90
54832;DHT22;40730;53.068;6.572;2024-03-08T04:52:16;0.40;99.90
54832;DHT22;40730;53.068;6.572;2024-03-08T04:54:42;0.40;99.90
54832;DHT22;40730;53.068;6.572;2024-03-08T04:57:08;0.40;99.90
54832;DHT22;40730;53.068;6.572;2024-03-08T04:59:33;0.40;99.90
54832;DHT22;40730;53.068;6.572;2024-03-08T05:01:59;0.30;99.90
54832;DHT22;40730;53.068;6.572;2024-03-08T05:04:25;0.40;99.90
54832;DHT22;40730;53.068;6.572;2024-03-08T05:06:50;0.30;99.90
54832;DHT22;40730;53.068;6.572;2024-03-08T05:09:16;0.30;99.90
54832;DHT22;40730;53.068;6.572;2024-03-08T05:11:44;0.30;99.90
54832;DHT22;40730;53.068;6.572;2024-03-08T05:14:11;0.20;99.90
54832;DHT22;40730;53.068;6.572;2024-03-08T05:16:37;0.20;99.90
54832;DHT22;40730;53.068;6.572;2024-03-08T05:19:03;0.20;99.90
54832;DHT22;40730;53.068;6.572;2024-03-08T05:21:29;0.20;99.90
54832;DHT22;40730;53.068;6.572;2024-03-08T05:23:54;0.20;99.90
54832;DHT22;40730;53.068;6.572;2024-03-08T05:26:20;0.20;99.90
54832;DHT22;40730;53.068;6.572;2024-03-08T05:28:48;0.20;99.90
54832;DHT22;40730;53.068;6.572;2024-03-08T05:31:20;0.20;99.90
54832;DHT22;40730;53.068;6.572;2024-03-08T05:33:48;0.20;99.90
54832;DHT22;40730;53.068;6.572;2024-03-08T05:36:14;0.20;99.90
54832;DHT22;40730;53.068;6.572;2024-03-08T05:38:42;0.20;99.90
54832;DHT22;40730;53.068;6.572;2024-03-08T05:41:09;0.20;99.90
54832;DHT22;40730;53.068;6.572;2024-03-08T05:43:34;0.20;99.90
54832;DHT22;40730;53.068;6.572;2024-03-08T05:46:00;0.20;99.90
54832;DHT22;40730;53.068;6.572;2024-03-08T05:48:26;0.20;99.90
54832;DHT22;40730;53.068;6.572;2024-03-08T05:50:51;0.20;99.90
54832;DHT22;40730;53.068;6.572;2024-03-08T05:53:17;0.20;99.90
54832;DHT22;40730;53.068;6.572;2024-03-08T05:55:42;0.20;99.90
54832;DHT22;40730;53.068;6.572;2024-03-08T05:58:09;0.20;99.90
54832;DHT22;40730;53.068;6.572;2024-03-08T06:00:34;0.10;99.90
54832;DHT22;40730;53.068;6.572;2024-03-08T06:03:02;0.10;99.90
54832;DHT22;40730;53.068;6.572;2024-03-08T06:05:28;0.10;99.90
54832;DHT22;40730;53.068;6.572;2024-03-08T06:07:53;0.10;99.90
54832;DHT22;40730;53.068;6.572;2024-03-08T06:10:19;0.10;99.90
54832;DHT22;40730;53.068;6.572;2024-03-08T06:12:45;0.00;99.90
54832;DHT22;40730;53.068;6.572;2024-03-08T06:15:11;0.00;99.90
54832;DHT22;40730;53.068;6.572;2024-03-08T06:17:40;0.00;99.90
54832;DHT22;40730;53.068;6.572;2024-03-08T06:20:07;0.00;99.90
54832;DHT22;40730;53.068;6.572;2024-03-08T06:22:37;0.10;99.90
54832;DHT22;40730;53.068;6.572;2024-03-08T06:25:07;0.10;99.90
54832;DHT22;40730;53.068;6.572;2024-03-08T06:27:32;0.00;99.90
54832;DHT22;40730;53.068;6.572;2024-03-08T06:30:00;0.10;99.90
54832;DHT22;40730;53.068;6.572;2024-03-08T06:32:25;0.10;99.90
54832;DHT22;40730;53.068;6.572;2024-03-08T06:34:51;0.20;99.90
54832;DHT22;40730;53.068;6.572;2024-03-08T06:37:16;0.20;99.90
54832;DHT22;40730;53.068;6.572;2024-03-08T06:39:47;0.30;99.90
54832;DHT22;40730;53.068;6.572;2024-03-08T06:42:13;0.30;99.90
54832;DHT22;40730;53.068;6.572;2024-03-08T06:44:39;0.30;99.90
54832;DHT22;40730;53.068;6.572;2024-03-08T06:47:14;0.30;99.90
54832;DHT22;40730;53.068;6.572;2024-03-08T06:49:41;0.40;99.90
54832;DHT22;40730;53.068;6.572;2024-03-08T06:52:06;0.50;99.90
54832;DHT22;40730;53.068;6.572;2024-03-08T06:54:34;0.50;99.90
54832;DHT22;40730;53.068;6.572;2024-03-08T06:57:02;0.60;99.90
54832;DHT22;40730;53.068;6.572;2024-03-08T06:59:29;0.70;99.90
54832;DHT22;40730;53.068;6.572;2024-03-08T07:01:55;0.70;99.90
54832;DHT22;40730;53.068;6.572;2024-03-08T07:04:20;0.80;99.90
54832;DHT22;40730;53.068;6.572;2024-03-08T07:06:47;0.90;99.90
54832;DHT22;40730;53.068;6.572;2024-03-08T07:09:15;1.00;99.90
54832;DHT22;40730;53.068;6.572;2024-03-08T07:11:42;1.10;99.90
54832;DHT22;40730;53.068;6.572;2024-03-08T07:14:08;1.20;99.90
54832;DHT22;40730;53.068;6.572;2024-03-08T07:16:34;1.20;99.90
54832;DHT22;40730;53.068;6.572;2024-03-08T07:19:01;1.30;99.90
54832;DHT22;40730;53.068;6.572;2024-03-08T07:21:27;1.30;99.90
54832;DHT22;40730;53.068;6.572;2024-03-08T07:23:53;1.40;99.90
54832;DHT22;40730;53.068;6.572;2024-03-08T07:26:27;1.50;99.90
54832;DHT22;40730;53.068;6.572;2024-03-08T07:28:53;1.60;99.90
54832;DHT22;40730;53.068;6.572;2024-03-08T07:31:22;1.70;99.90
54832;DHT22;40730;53.068;6.572;2024-03-08T07:33:50;1.80;99.90
54832;DHT22;40730;53.068;6.572;2024-03-08T07:36:16;1.90;99.90
54832;DHT22;40730;53.068;6.572;2024-03-08T07:38:42;2.00;99.90
54832;DHT22;40730;53.068;6.572;2024-03-08T07:41:07;2.10;99.90
54832;DHT22;40730;53.068;6.572;2024-03-08T07:43:33;2.20;99.90
54832;DHT22;40730;53.068;6.572;2024-03-08T07:45:58;2.30;99.90
54832;DHT22;40730;53.068;6.572;2024-03-08T07:48:24;2.40;99.90
54832;DHT22;40730;53.068;6.572;2024-03-08T07:50:49;2.50;99.90
54832;DHT22;40730;53.068;6.572;2024-03-08T07:53:15;2.60;99.90
54832;DHT22;40730;53.068;6.572;2024-03-08T07:55:41;2.70;99.90
54832;DHT22;40730;53.068;6.572;2024-03-08T07:58:09;2.80;99.90
54832;DHT22;40730;53.068;6.572;2024-03-08T08:00:36;2.90;99.90
54832;DHT22;40730;53.068;6.572;2024-03-08T08:03:03;3.10;99.90
54832;DHT22;40730;53.068;6.572;2024-03-08T08:05:28;3.20;99.90
54832;DHT22;40730;53.068;6.572;2024-03-08T08:07:54;3.30;99.90
54832;DHT22;40730;53.068;6.572;2024-03-08T08:10:20;3.40;99.90
54832;DHT22;40730;53.068;6.572;2024-03-08T08:12:50;3.50;99.90
54832;DHT22;40730;53.068;6.572;2024-03-08T08:15:16;3.60;99.90
54832;DHT22;40730;53.068;6.572;2024-03-08T08:17:46;3.60;99.90
54832;DHT22;40730;53.068;6.572;2024-03-08T08:20:13;3.80;99.90
54832;DHT22;40730;53.068;6.572;2024-03-08T08:22:39;3.90;99.90
54832;DHT22;40730;53.068;6.572;2024-03-08T08:25:06;4.00;99.90
54832;DHT22;40730;53.068;6.572;2024-03-08T08:27:32;4.10;99.90
54832;DHT22;40730;53.068;6.572;2024-03-08T08:29:57;4.30;99.90
54832;DHT22;40730;53.068;6.572;2024-03-08T08:32:23;4.40;99.90
54832;DHT22;40730;53.068;6.572;2024-03-08T08:34:48;4.50;99.90
54832;DHT22;40730;53.068;6.572;2024-03-08T08:37:14;4.60;99.90
54832;DHT22;40730;53.068;6.572;2024-03-08T08:39:39;4.70;99.90
54832;DHT22;40730;53.068;6.572;2024-03-08T08:42:05;4.70;99.90
54832;DHT22;40730;53.068;6.572;2024-03-08T08:44:37;4.70;99.90
54832;DHT22;40730;53.068;6.572;2024-03-08T08:47:03;4.80;99.90
54832;DHT22;40730;53.068;6.572;2024-03-08T08:49:29;5.00;99.90
54832;DHT22;40730;53.068;6.572;2024-03-08T08:51:56;5.00;99.90
54832;DHT22;40730;53.068;6.572;2024-03-08T08:54:24;5.20;99.90
54832;DHT22;40730;53.068;6.572;2024-03-08T08:56:50;5.40;99.90
54832;DHT22;40730;53.068;6.572;2024-03-08T08:59:16;5.50;99.90
54832;DHT22;40730;53.068;6.572;2024-03-08T09:01:46;5.50;99.90
54832;DHT22;40730;53.068;6.572;2024-03-08T09:04:15;5.60;99.90
54832;DHT22;40730;53.068;6.572;2024-03-08T09:06:41;5.70;99.90
54832;DHT22;40730;53.068;6.572;2024-03-08T09:09:07;5.90;99.90
54832;DHT22;40730;53.068;6.572;2024-03-08T09:11:38;6.00;99.90
54832;DHT22;40730;53.068;6.572;2024-03-08T09:14:07;6.10;99.90
54832;DHT22;40730;53.068;6.572;2024-03-08T09:16:33;6.20;99.90
54832;DHT22;40730;53.068;6.572;2024-03-08T09:18:58;6.30;99.90
54832;DHT22;40730;53.068;6.572;2024-03-08T09:21:25;6.40;99.90
54832;DHT22;40730;53.068;6.572;2024-03-08T09:23:50;6.50;99.90
54832;DHT22;40730;53.068;6.572;2024-03-08T09:26:16;6.60;99.90
54832;DHT22;40730;53.068;6.572;2024-03-08T09:28:42;6.70;99.90
54832;DHT22;40730;53.068;6.572;2024-03-08T09:31:07;6.80;99.90
54832;DHT22;40730;53.068;6.572;2024-03-08T09:33:33;6.80;99.90
54832;DHT22;40730;53.068;6.572;2024-03-08T09:35:59;6.80;99.90
54832;DHT22;40730;53.068;6.572;2024-03-08T09:38:24;6.90;99.90
54832;DHT22;40730;53.068;6.572;2024-03-08T09:40:52;7.00;99.90
54832;DHT22;40730;53.068;6.572;2024-03-08T09:43:18;7.00;99.90
54832;DHT22;40730;53.068;6.572;2024-03-08T09:45:45;7.00;99.90
54832;DHT22;40730;53.068;6.572;2024-03-08T09:48:12;7.20;99.90
54832;DHT22;40730;53.068;6.572;2024-03-08T09:50:40;7.30;99.90
54832;DHT22;40730;53.068;6.572;2024-03-08T09:53:06;7.30;99.90
54832;DHT22;40730;53.068;6.572;2024-03-08T09:55:38;7.40;99.90
54832;DHT22;40730;53.068;6.572;2024-03-08T09:58:08;7.50;99.90
54832;DHT22;40730;53.068;6.572;2024-03-08T10:00:55;7.50;99.90
54832;DHT22;40730;53.068;6.572;2024-03-08T10:03:23;7.40;99.90
54832;DHT22;40730;53.068;6.572;2024-03-08T10:05:51;7.30;99.90
54832;DHT22;40730;53.068;6.572;2024-03-08T10:08:17;7.30;99.90
54832;DHT22;40730;53.068;6.572;2024-03-08T10:10:43;7.20;99.90
54832;DHT22;40730;53.068;6.572;2024-03-08T10:13:09;7.20;99.90
54832;DHT22;40730;53.068;6.572;2024-03-08T10:15:36;7.30;99.90
54832;DHT22;40730;53.068;6.572;2024-03-08T10:18:02;7.20;99.90
54832;DHT22;40730;53.068;6.572;2024-03-08T10:20:32;7.20;99.90
54832;DHT22;40730;53.068;6.572;2024-03-08T10:23:02;7.10;99.90
54832;DHT22;40730;53.068;6.572;2024-03-08T10:25:29;7.10;99.90
54832;DHT22;40730;53.068;6.572;2024-03-08T10:27:56;7.30;99.90
54832;DHT22;40730;53.068;6.572;2024-03-08T10:30:21;7.50;99.90
54832;DHT22;40730;53.068;6.572;2024-03-08T10:32:50;7.70;99.90
54832;DHT22;40730;53.068;6.572;2024-03-08T10:35:17;7.90;99.90
54832;DHT22;40730;53.068;6.572;2024-03-08T10:37:50;8.20;99.90
54832;DHT22;40730;53.068;6.572;2024-03-08T10:40:26;8.40;99.90
54832;DHT22;40730;53.068;6.572;2024-03-08T10:42:59;8.60;99.90
54832;DHT22;40730;53.068;6.572;2024-03-08T10:45:37;8.80;99.90
54832;DHT22;40730;53.068;6.572;2024-03-08T10:50:44;9.10;99.90
54832;DHT22;40730;53.068;6.572;2024-03-08T10:53:17;9.30;99.90
54832;DHT22;40730;53.068;6.572;2024-03-08T10:55:44;9.40;99.90
54832;DHT22;40730;53.068;6.572;2024-03-08T10:58:10;9.60;99.90
54832;DHT22;40730;53.068;6.572;2024-03-08T11:00:36;9.70;99.90
54832;DHT22;40730;53.068;6.572;2024-03-08T11:03:03;9.90;99.90
54832;DHT22;40730;53.068;6.572;2024-03-08T11:05:39;10.10;99.90
54832;DHT22;40730;53.068;6.572;2024-03-08T11:10:57;10.30;99.90
54832;DHT22;40730;53.068;6.572;2024-03-08T11:13:37;10.30;99.90
54832;DHT22;40730;53.068;6.572;2024-03-08T11:18:57;10.50;99.90
54832;DHT22;40730;53.068;6.572;2024-03-08T11:21:25;10.60;99.90
54832;DHT22;40730;53.068;6.572;2024-03-08T11:24:02;10.70;99.90
54832;DHT22;40730;53.068;6.572;2024-03-08T11:26:31;10.90;99.90
54832;DHT22;40730;53.068;6.572;2024-03-08T11:34:48;11.50;99.90
54832;DHT22;40730;53.068;6.572;2024-03-08T11:37:18;11.70;99.70
54832;DHT22;40730;53.068;6.572;2024-03-08T11:39:51;11.80;99.10
54832;DHT22;40730;53.068;6.572;2024-03-08T11:42:18;11.80;99.10
54832;DHT22;40730;53.068;6.572;2024-03-08T11:44:45;11.90;97.60
54832;DHT22;40730;53.068;6.572;2024-03-08T11:47:11;11.90;97.80
54832;DHT22;40730;53.068;6.572;2024-03-08T11:49:41;11.90;97.90
54832;DHT22;40730;53.068;6.572;2024-03-08T11:52:17;11.90;97.50
54832;DHT22;40730;53.068;6.572;2024-03-08T11:54:54;11.90;97.40
54832;DHT22;40730;53.068;6.572;2024-03-08T11:57:22;11.90;97.30
54832;DHT22;40730;53.068;6.572;2024-03-08T11:59:54;11.90;97.40
54832;DHT22;40730;53.068;6.572;2024-03-08T12:02:24;12.00;97.10
54832;DHT22;40730;53.068;6.572;2024-03-08T12:05:00;12.10;96.60
54832;DHT22;40730;53.068;6.572;2024-03-08T12:07:26;12.10;97.50
54832;DHT22;40730;53.068;6.572;2024-03-08T12:10:19;12.20;96.60
54832;DHT22;40730;53.068;6.572;2024-03-08T12:12:52;12.40;96.70
54832;DHT22;40730;53.068;6.572;2024-03-08T12:15:23;12.60;96.40
54832;DHT22;40730;53.068;6.572;2024-03-08T12:17:51;12.70;95.80
54832;DHT22;40730;53.068;6.572;2024-03-08T12:20:19;12.70;96.00
54832;DHT22;40730;53.068;6.572;2024-03-08T12:22:47;12.80;96.10
54832;DHT22;40730;53.068;6.572;2024-03-08T12:25:13;13.00;96.20
54832;DHT22;40730;53.068;6.572;2024-03-08T12:27:40;13.20;94.60
54832;DHT22;40730;53.068;6.572;2024-03-08T12:30:19;13.20;94.70
54832;DHT22;40730;53.068;6.572;2024-03-08T12:32:53;13.10;95.20
54832;DHT22;40730;53.068;6.572;2024-03-08T12:35:21;13.20;95.30
54832;DHT22;40730;53.068;6.572;2024-03-08T12:37:49;13.40;94.80
54832;DHT22;40730;53.068;6.572;2024-03-08T12:40:16;13.50;94.10
54832;DHT22;40730;53.068;6.572;2024-03-08T12:42:45;13.40;94.50
54832;DHT22;40730;53.068;6.572;2024-03-08T12:45:14;13.50;94.50
54832;DHT22;40730;53.068;6.572;2024-03-08T12:47:40;13.60;93.90
54832;DHT22;40730;53.068;6.572;2024-03-08T12:50:10;13.60;93.90
54832;DHT22;40730;53.068;6.572;2024-03-08T12:52:36;13.60;92.90
54832;DHT22;40730;53.068;6.572;2024-03-08T12:55:02;13.60;93.00
54832;DHT22;40730;53.068;6.572;2024-03-08T12:57:28;13.60;93.70
54832;DHT22;40730;53.068;6.572;2024-03-08T12:59:54;13.60;92.80
54832;DHT22;40730;53.068;6.572;2024-03-08T13:02:19;13.60;93.20
54832;DHT22;40730;53.068;6.572;2024-03-08T13:04:46;13.60;93.20
54832;DHT22;40730;53.068;6.572;2024-03-08T13:07:21;13.80;92.90
54832;DHT22;40730;53.068;6.572;2024-03-08T13:09:47;13.90;92.80
54832;DHT22;40730;53.068;6.572;2024-03-08T13:12:12;14.00;92.50
54832;DHT22;40730;53.068;6.572;2024-03-08T13:14:40;14.00;92.10
54832;DHT22;40730;53.068;6.572;2024-03-08T13:17:06;14.10;91.70
54832;DHT22;40730;53.068;6.572;2024-03-08T13:19:36;14.10;91.30
54832;DHT22;40730;53.068;6.572;2024-03-08T13:22:04;14.10;92.70
54832;DHT22;40730;53.068;6.572;2024-03-08T13:24:30;14.30;92.20
54832;DHT22;40730;53.068;6.572;2024-03-08T13:26:56;14.40;91.80
54832;DHT22;40730;53.068;6.572;2024-03-08T13:29:21;14.50;92.20
54832;DHT22;40730;53.068;6.572;2024-03-08T13:31:48;14.60;91.90
54832;DHT22;40730;53.068;6.572;2024-03-08T13:34:17;14.70;90.30
54832;DHT22;40730;53.068;6.572;2024-03-08T13:36:43;14.60;91.20
54832;DHT22;40730;53.068;6.572;2024-03-08T13:39:10;14.60;91.50
54832;DHT22;40730;53.068;6.572;2024-03-08T13:41:41;14.70;91.20
54832;DHT22;40730;53.068;6.572;2024-03-08T13:44:13;14.70;90.90
54832;DHT22;40730;53.068;6.572;2024-03-08T13:46:39;14.70;90.60
54832;DHT22;40730;53.068;6.572;2024-03-08T13:49:05;14.60;90.20
54832;DHT22;40730;53.068;6.572;2024-03-08T13:51:33;14.60;90.00
54832;DHT22;40730;53.068;6.572;2024-03-08T13:53:59;14.50;90.50
54832;DHT22;40730;53.068;6.572;2024-03-08T13:56:26;14.70;90.70
54832;DHT22;40730;53.068;6.572;2024-03-08T13:58:52;14.90;90.70
54832;DHT22;40730;53.068;6.572;2024-03-08T14:01:18;14.80;90.00
54832;DHT22;40730;53.068;6.572;2024-03-08T14:03:43;14.90;90.60
54832;DHT22;40730;53.068;6.572;2024-03-08T14:06:09;14.90;89.90
54832;DHT22;40730;53.068;6.572;2024-03-08T14:08:36;14.90;90.40
54832;DHT22;40730;53.068;6.572;2024-03-08T14:11:05;14.90;89.60
54832;DHT22;40730;53.068;6.572;2024-03-08T14:13:44;14.80;88.90
54832;DHT22;40730;53.068;6.572;2024-03-08T14:16:13;14.70;89.70
54832;DHT22;40730;53.068;6.572;2024-03-08T14:18:38;14.60;89.90
54832;DHT22;40730;53.068;6.572;2024-03-08T14:21:05;14.60;88.60
54832;DHT22;40730;53.068;6.572;2024-03-08T14:23:31;14.50;89.00
54832;DHT22;40730;53.068;6.572;2024-03-08T14:25:58;14.40;88.50
54832;DHT22;40730;53.068;6.572;2024-03-08T14:28:24;14.30;88.20
54832;DHT22;40730;53.068;6.572;2024-03-08T14:30:52;14.40;88.80
54832;DHT22;40730;53.068;6.572;2024-03-08T14:33:18;14.30;88.50
54832;DHT22;40730;53.068;6.572;2024-03-08T14:35:44;14.40;89.20
54832;DHT22;40730;53.068;6.572;2024-03-08T14:38:12;14.30;87.90
54832;DHT22;40730;53.068;6.572;2024-03-08T14:40:38;14.40;87.80
54832;DHT22;40730;53.068;6.572;2024-03-08T14:43:05;14.40;88.70
54832;DHT22;40730;53.068;6.572;2024-03-08T14:45:31;14.30;89.10
54832;DHT22;40730;53.068;6.572;2024-03-08T14:47:57;14.30;89.00
54832;DHT22;40730;53.068;6.572;2024-03-08T14:50:24;14.30;89.30
54832;DHT22;40730;53.068;6.572;2024-03-08T14:52:50;14.20;88.00
54832;DHT22;40730;53.068;6.572;2024-03-08T14:55:20;13.90;88.10
54832;DHT22;40730;53.068;6.572;2024-03-08T14:57:50;13.50;88.50
54832;DHT22;40730;53.068;6.572;2024-03-08T15:00:18;13.20;89.10
54832;DHT22;40730;53.068;6.572;2024-03-08T15:02:55;13.00;90.10
54832;DHT22;40730;53.068;6.572;2024-03-08T15:05:22;12.70;90.30
54832;DHT22;40730;53.068;6.572;2024-03-08T15:07:52;12.40;90.30
54832;DHT22;40730;53.068;6.572;2024-03-08T15:10:18;12.20;90.60
54832;DHT22;40730;53.068;6.572;2024-03-08T15:12:46;11.90;90.90
54832;DHT22;40730;53.068;6.572;2024-03-08T15:15:12;11.60;91.10
54832;DHT22;40730;53.068;6.572;2024-03-08T15:17:40;11.10;91.40
54832;DHT22;40730;53.068;6.572;2024-03-08T15:20:07;10.80;92.10
54832;DHT22;40730;53.068;6.572;2024-03-08T15:22:42;10.60;92.50
54832;DHT22;40730;53.068;6.572;2024-03-08T15:25:09;10.50;92.30
54832;DHT22;40730;53.068;6.572;2024-03-08T15:27:37;10.30;92.90
54832;DHT22;40730;53.068;6.572;2024-03-08T15:30:05;10.20;93.20
54832;DHT22;40730;53.068;6.572;2024-03-08T15:32:33;10.00;93.50
54832;DHT22;40730;53.068;6.572;2024-03-08T15:34:59;9.80;93.80
54832;DHT22;40730;53.068;6.572;2024-03-08T15:37:24;10.10;94.10
54832;DHT22;40730;53.068;6.572;2024-03-08T15:39:51;10.40;93.90
54832;DHT22;40730;53.068;6.572;2024-03-08T15:42:17;10.60;94.10
54832;DHT22;40730;53.068;6.572;2024-03-08T15:44:42;10.60;94.10
54832;DHT22;40730;53.068;6.572;2024-03-08T15:47:08;10.60;94.30
54832;DHT22;40730;53.068;6.572;2024-03-08T15:49:37;10.60;94.40
54832;DHT22;40730;53.068;6.572;2024-03-08T15:52:02;10.50;94.30
54832;DHT22;40730;53.068;6.572;2024-03-08T15:54:28;10.20;94.30
54832;DHT22;40730;53.068;6.572;2024-03-08T15:56:53;9.90;94.60
54832;DHT22;40730;53.068;6.572;2024-03-08T15:59:19;9.60;95.00